Terminal Aerodrome Forecast
Issued by NWS Duluth, MN

Home | Current Version | Previous Version | Text Only | Print | Product List | Glossary On
Versions: 1 2 3 4 5 6 7 8 9 10 11 12 13 14 15 16 17 18 19 20 21 22 23 24 25 26 27
453
FTUS43 KDLH 230259 AAC
TAFDLH
TAF AMD
KDLH 230259Z 2303/2324 28011KT 4SM TSRA VCTS SCT040CB BKN100
     FM230330 26012G18KT P6SM SCT080
     FM231400 29013KT P6SM BKN045
     FM231700 30016G26KT P6SM BKN050=

USA.gov is the U.S. government's official web portal to all federal, state and local government web resources and services.